Data for 04/22/2015

Time Sea-Level Adjusted Pressure Absolute Pressure Temperature Relative Humidity Dew Point   
(mb) (inHg) (mb) (inHg) (C) (F) (%) (C) (F)
00:05 1012 29.88 842 24.86 10.5 50.8 41 -2.1 28.2
00:10 1012 29.88 842 24.86 10.3 50.6 41 -2.2 28.1
00:15 1012 29.88 842 24.86 10.1 50.3 42 -2.2 28
00:20 1012 29.88 842 24.86 10 50 42 -2.2 28
00:25 1012 29.88 842 24.86 9.8 49.7 43 -2.2 28.1
00:30 1012 29.88 842 24.86 9.6 49.3 44 -2.1 28.2
00:35 1012 29.88 842 24.86 9.5 49.1 44 -2.2 28.1
00:40 1012 29.88 842 24.86 9.4 48.9 44 -2.2 28
00:45 1012 29.88 842 24.86 9.4 49 44 -2.2 28.1
00:50 1012 29.88 842 24.86 9.5 49 44 -2.2 28
00:55 1012 29.88 842 24.86 9.6 49.2 44 -2.2 28
01:00 1012 29.88 842 24.86 9.6 49.3 43 -2.2 28
01:05 1012 29.88 842 24.86 9.6 49.4 43 -2.2 28
01:10 1012 29.88 842 24.86 9.6 49.3 44 -2.2 28.1
01:15 1012 29.88 842 24.86 9.5 49 44 -2.1 28.3
01:20 1012 29.88 842 24.86 9.2 48.6 45 -2.1 28.2
01:25 1012 29.88 842 24.86 9.2 48.5 45 -2.1 28.2
01:30 1012 29.88 842 24.86 9.1 48.4 45 -2.1 28.2
01:35 1012 29.88 842 24.86 9.1 48.3 45 -2.1 28.1
01:40 1012 29.88 842 24.86 9 48.1 45 -2.2 28
01:45 1012 29.88 842 24.86 9 48.1 45 -2.2 28
01:50 1012 29.88 842 24.86 9 48.2 45 -2.2 28
01:55 1013 29.91 842 24.86 8.9 48.1 46 -2.2 28.1
02:00 1013 29.91 842 24.86 8.9 47.9 46 -2.1 28.2
02:05 1013 29.91 842 24.86 8.8 47.8 46 -2.1 28.3
02:10 1013 29.91 842 24.86 8.7 47.7 46 -2.3 27.8
02:15 1013 29.91 842 24.86 8.7 47.7 46 -2.1 28.2
02:20 1013 29.91 842 24.86 8.1 46.6 48 -2.3 27.9
02:25 1013 29.91 842 24.86 8 46.5 48 -2.4 27.7
02:30 1013 29.91 842 24.86 8.1 46.7 48 -2.2 28
02:35 1013 29.91 842 24.86 8.2 46.7 48 -2.2 28.1
02:40 1013 29.91 842 24.86 8 46.4 48 -2.2 28
02:45 1013 29.91 842 24.86 7.8 46.1 49 -2.2 28.1
02:50 1013 29.91 842 24.86 7.7 45.8 49 -2.4 27.6
02:55 1013 29.91 842 24.86 7.6 45.6 49 -2.6 27.4
03:00 1013 29.91 842 24.86 7.4 45.3 48 -2.7 27.1
03:05 1013 29.91 842 24.86 7.3 45.1 48 -3 26.6
03:10 1013 29.91 842 24.86 7.4 45.3 48 -2.9 26.8
03:15 1013 29.91 842 24.86 7.5 45.5 48 -2.9 26.8
03:20 1013 29.91 842 24.86 7.7 45.8 48 -2.7 27.1
03:25 1013 29.91 842 24.86 7.8 46 48 -2.6 27.3
03:30 1013 29.91 842 24.86 7.5 45.4 49 -2.6 27.3
03:35 1013 29.91 842 24.86 7.2 45 49 -2.6 27.3
03:40 1013 29.91 842 24.86 7 44.6 51 -2.6 27.4
03:45 1013 29.91 842 24.86 7 44.7 50 -2.6 27.2
03:50 1013 29.91 842 24.86 6.8 44.3 51 -2.6 27.3
03:55 1013 29.91 842 24.86 6.7 44 51 -2.6 27.2
04:00 1013 29.91 842 24.86 6.7 44.1 51 -2.7 27.1
04:05 1013 29.91 842 24.86 6.8 44.2 51 -2.6 27.2
04:10 1013 29.91 842 24.86 6.9 44.5 51 -2.6 27.3
04:15 1012 29.88 842 24.86 7 44.7 50 -2.6 27.3
04:20 1012 29.88 842 24.86 7 44.6 51 -2.4 27.6
04:25 1012 29.88 842 24.86 6.9 44.4 51 -2.5 27.5
04:30 1012 29.88 842 24.86 6.8 44.3 51 -2.5 27.4
04:35 1013 29.91 842 24.86 6.7 44.1 52 -2.5 27.5
04:40 1012 29.88 842 24.86 6.8 44.2 51 -2.5 27.4
04:45 1012 29.88 842 24.86 6.6 43.9 52 -2.5 27.5
04:50 1012 29.88 842 24.86 6.5 43.7 52 -2.6 27.2
04:55 1012 29.88 842 24.86 6.5 43.8 52 -2.6 27.3
05:00 1012 29.88 842 24.86 6.5 43.8 52 -2.6 27.2
05:05 1013 29.91 842 24.86 6.5 43.7 52 -2.7 27.1
05:10 1012 29.88 842 24.86 6.5 43.7 52 -2.7 27.1
05:15 1013 29.91 842 24.86 6.5 43.6 52 -2.8 27
05:20 1013 29.91 842 24.86 6.4 43.6 52 -2.7 27.1
05:25 1013 29.91 842 24.86 6.2 43.2 52 -2.8 26.9
05:30 1013 29.91 842 24.86 6 42.8 52 -3 26.5
05:35 1013 29.91 842 24.86 6.1 42.9 52 -3 26.6
05:40 1013 29.91 842 24.86 5.9 42.7 52 -3.1 26.5
05:45 1013 29.91 842 24.86 6 42.8 53 -2.9 26.8
05:50 1013 29.91 842 24.86 6 42.8 51 -3.3 26.1
05:55 1013 29.91 842 24.86 6.2 43.1 51 -3.1 26.4
06:00 1013 29.91 842 24.86 6 42.7 52 -3.2 26.3
06:05 1013 29.91 842 24.86 5.8 42.5 52 -3.3 26.1
06:10 1013 29.91 842 24.86 5.9 42.7 51 -3.3 26
06:15 1013 29.91 842 24.86 6.1 43 51 -3.3 26
06:20 1013 29.91 842 24.86 6.2 43.2 50 -3.3 26.1
06:25 1013 29.91 842 24.86 6.4 43.5 50 -3.2 26.2
06:30 1013 29.91 842 24.86 6.4 43.6 50 -3.3 26.1
06:35 1013 29.91 842 24.86 6.7 44.1 49 -3.1 26.4
06:40 1013 29.91 842 24.86 6.9 44.4 50 -2.9 26.8
06:45 1013 29.91 842 24.86 7 44.5 49 -2.9 26.8
06:50 1013 29.91 842 24.86 7 44.6 50 -2.8 27
06:55 1013 29.91 842 24.86 7.2 44.9 49 -2.9 26.7
07:00 1013 29.91 842 24.86 7.6 45.6 47 -3.1 26.5
07:05 1013 29.91 843 24.89 8.6 47.4 43 -3.4 26
07:10 1013 29.91 843 24.89 9 48.2 42 -3.1 26.5
07:15 1013 29.91 843 24.89 9.5 49 41 -3 26.6
07:20 1013 29.91 843 24.89 9.7 49.5 40 -3.1 26.4
07:25 1013 29.91 843 24.89 9.9 49.9 40 -3.1 26.4
07:30 1013 29.91 843 24.89 10.6 51.1 38 -3.1 26.4
07:35 1013 29.91 843 24.89 10.7 51.3 39 -2.8 27
07:40 1013 29.91 843 24.89 10.7 51.2 38 -3.1 26.5
07:45 1013 29.91 843 24.89 11.2 52.2 35 -3.6 25.5
07:50 1013 29.91 843 24.89 11.4 52.5 35 -3.5 25.8
07:55 1013 29.91 843 24.89 12 53.7 34 -3.4 25.8
08:00 1013 29.91 843 24.89 12.5 54.4 34 -2.8 26.9
08:05 1013 29.91 843 24.89 12.1 53.9 35 -2.9 26.8
08:10 1013 29.91 843 24.89 12.2 53.9 36 -2.3 27.8
08:15 1013 29.91 842 24.86 12.6 54.7 35 -2.5 27.5
08:20 1013 29.91 843 24.89 12.9 55.1 35 -2.3 27.9
08:25 1013 29.91 842 24.86 12.4 54.3 37 -1.8 28.7
08:30 1013 29.91 842 24.86 12.5 54.4 36 -2 28.3
08:35 1013 29.91 842 24.86 12.5 54.5 36 -2 28.3
08:40 1013 29.91 843 24.89 12.3 54.1 36 -2.3 27.8
08:45 1013 29.91 842 24.86 13.1 55.6 34 -2.4 27.7
08:50 1013 29.91 842 24.86 13.7 56.6 33 -2.1 28.1
08:55 1013 29.91 842 24.86 14.2 57.5 32 -2.3 27.9
09:00 1013 29.91 842 24.86 14.3 57.7 32 -2.3 27.9
09:05 1013 29.91 842 24.86 14.2 57.6 31 -2.4 27.6
09:10 1013 29.91 842 24.86 14.6 58.3 31 -2.2 28
09:15 1013 29.91 842 24.86 15.6 60 29 -2.4 27.7
09:20 1013 29.91 842 24.86 15.6 60.2 29 -2.3 27.9
09:25 1013 29.91 842 24.86 15.9 60.7 26 -3.2 26.2
09:30 1013 29.91 842 24.86 16.1 61 28 -2.5 27.6
09:35 1013 29.91 842 24.86 15.9 60.6 29 -2 28.4
09:40 1013 29.91 842 24.86 15.9 60.5 28 -2.5 27.5
09:45 1013 29.91 842 24.86 16.4 61.5 27 -2.3 27.8
09:50 1013 29.91 842 24.86 16.7 62 27 -2.5 27.4
09:55 1013 29.91 842 24.86 16.9 62.4 26 -2.4 27.7
10:00 1013 29.91 842 24.86 17.2 63 28 -1.4 29.4
10:05 1013 29.91 842 24.86 17.1 62.8 27 -2.2 28.1
10:10 1013 29.91 842 24.86 17.3 63.1 25 -2.8 26.9
10:15 1013 29.91 842 24.86 16.8 62.2 26 -2.7 27.2
10:20 1013 29.91 842 24.86 16.9 62.4 26 -2.6 27.4
10:25 1013 29.91 842 24.86 17.2 63 26 -2.2 28.1
10:30 1013 29.91 842 24.86 16.7 62 28 -2 28.4
10:35 1013 29.91 842 24.86 16.7 62.1 27 -2.4 27.6
10:40 1013 29.91 842 24.86 17.1 62.8 26 -2.4 27.8
10:45 1013 29.91 842 24.86 17.2 62.9 27 -2 28.4
10:50 1013 29.91 842 24.86 17.1 62.8 26 -2.3 27.8
10:55 1013 29.91 842 24.86 17.9 64.1 25 -2.5 27.6
11:00 1013 29.91 842 24.86 18.4 65.1 25 -1.8 28.7
11:05 1013 29.91 842 24.86 18.7 65.6 25 -1.7 29
11:10 1012 29.88 842 24.86 18.7 65.6 23 -3 26.5
11:15 1012 29.88 842 24.86 18.5 65.3 25 -1.6 29.1
11:20 1012 29.88 841 24.83 18.9 66 24 -2 28.4
11:25 1012 29.88 841 24.83 18.9 66.1 24 -2.1 28.2
11:30 1012 29.88 841 24.83 19.3 66.8 22 -2.8 27
11:35 1012 29.88 841 24.83 19.5 67 23 -2.2 28.1
11:40 1012 29.88 841 24.83 19.4 67 23 -2 28.4
11:45 1012 29.88 841 24.83 19.8 67.6 23 -1.8 28.8
11:50 1012 29.88 841 24.83 20.2 68.3 22 -2.4 27.7
11:55 1012 29.88 841 24.83 19.8 67.6 24 -1.3 29.6
12:00 1012 29.88 841 24.83 19.3 66.7 22 -2.8 26.9
12:05 1012 29.88 841 24.83 20.2 68.3 20 -3.1 26.4
12:10 1012 29.88 841 24.83 20.3 68.6 21 -2.7 27.2
12:15 1012 29.88 841 24.83 20.4 68.7 20 -3.2 26.2
12:20 1011 29.85 841 24.83 20.2 68.4 21 -2.5 27.6
12:25 1011 29.85 841 24.83 20.9 69.6 20 -3.1 26.5
12:30 1011 29.85 841 24.83 20.6 69.2 20 -2.8 26.9
12:35 1011 29.85 841 24.83 20.1 68.2 20 -3.6 25.5
12:40 1011 29.85 841 24.83 19.2 66.5 20 -4.5 24
12:45 1011 29.85 840 24.81 20.2 68.3 19 -4 24.8
12:50 1011 29.85 840 24.81 21 69.8 19 -3.6 25.5
12:55 1011 29.85 840 24.81 21.6 70.9 19 -2.9 26.7
13:00 1011 29.85 840 24.81 20.8 69.4 21 -2.2 28.1
13:05 1011 29.85 840 24.81 20 68.1 20 -3.6 25.6
13:10 1011 29.85 840 24.81 20.6 69 19 -3.8 25.2
13:15 1011 29.85 840 24.81 20.7 69.2 19 -3.8 25.2
13:20 1011 29.85 840 24.81 20.6 69 18 -4.2 24.4
13:25 1011 29.85 840 24.81 21.1 70 17 -4.3 24.2
13:30 1011 29.85 840 24.81 21.4 70.6 18 -3.9 25
13:35 1011 29.85 840 24.81 22 71.6 17 -4 24.7
13:40 1011 29.85 840 24.81 22.2 72 16 -4.7 23.5
13:45 1011 29.85 840 24.81 21.8 71.3 17 -4.1 24.5
13:50 1011 29.85 840 24.81 21.6 70.8 17 -4.5 23.9
13:55 1011 29.85 840 24.81 21.9 71.5 16 -4.8 23.3
14:00 1011 29.85 840 24.81 22.3 72.1 16 -4.9 23.2
14:05 1011 29.85 840 24.81 21.1 70 18 -4.2 24.5
14:10 1010 29.83 840 24.81 21.6 70.9 17 -4.2 24.4
14:15 1010 29.83 840 24.81 22.2 71.9 17 -4 24.7
14:20 1010 29.83 840 24.81 21.8 71.2 17 -4.2 24.5
14:25 1010 29.83 839 24.78 22.3 72.1 15 -5 22.9
14:30 1010 29.83 839 24.78 21.8 71.2 17 -4.3 24.2
14:35 1010 29.83 839 24.78 21.8 71.3 16 -4.9 23.2
14:40 1010 29.83 839 24.78 22.7 72.9 15 -5 22.9
14:45 1010 29.83 839 24.78 22.5 72.6 16 -4.8 23.4
14:50 1010 29.83 839 24.78 22 71.5 16 -5.2 22.6
14:55 1010 29.83 839 24.78 20.9 69.6 17 -4.6 23.7
15:00 1010 29.83 839 24.78 20.4 68.7 18 -4.9 23.1
15:05 1010 29.83 839 24.78 20.4 68.6 18 -4.7 23.5
15:10 1010 29.83 839 24.78 20.2 68.4 18 -4.5 23.9
15:15 1010 29.83 839 24.78 20 68 19 -4.3 24.3
15:20 1010 29.83 839 24.78 20 68 19 -4.3 24.3
15:25 1010 29.83 839 24.78 20.5 68.9 18 -4.4 24.1
15:30 1010 29.83 839 24.78 20.4 68.7 18 -4.4 24.1
15:35 1010 29.83 839 24.78 19.8 67.7 18 -4.7 23.5
15:40 1010 29.83 839 24.78 19.9 67.8 18 -5.1 22.8
15:45 1010 29.83 839 24.78 20.6 69 18 -4.3 24.2
15:50 1010 29.83 839 24.78 20.6 69.1 18 -4 24.7
15:55 1009 29.8 839 24.78 20.4 68.7 22 -1.9 28.6
16:00 1009 29.8 838 24.75 18.9 66 25 -1.5 29.3
16:05 1009 29.8 838 24.75 18.2 64.8 26 -1.7 28.9
16:10 1009 29.8 839 24.78 17.9 64.2 27 -1.5 29.3
16:15 1009 29.8 839 24.78 18 64.4 26 -1.4 29.4
16:20 1009 29.8 839 24.78 18 64.4 26 -1.7 28.9
16:25 1009 29.8 839 24.78 18.6 65.4 24 -2.1 28.2
16:30 1009 29.8 839 24.78 18.8 65.8 25 -1.7 28.9
16:35 1009 29.8 838 24.75 18.3 65 25 -1.9 28.6
16:40 1009 29.8 838 24.75 18.6 65.4 24 -2 28.4
16:45 1009 29.8 838 24.75 18.5 65.3 24 -2.5 27.5
16:50 1009 29.8 838 24.75 18.5 65.3 24 -2.2 28.1
16:55 1009 29.8 838 24.75 18.6 65.4 24 -2.3 27.9
17:00 1009 29.8 838 24.75 17.9 64.2 25 -2.2 28
17:05 1009 29.8 838 24.75 17.6 63.7 26 -1.8 28.7
17:10 1009 29.8 838 24.75 17.5 63.6 27 -1.6 29.1
17:15 1009 29.8 838 24.75 17.6 63.6 27 -1.4 29.5
17:20 1009 29.8 838 24.75 17.7 63.9 27 -1.6 29.2
17:25 1009 29.8 838 24.75 17.8 64 27 -1.4 29.5
17:30 1009 29.8 838 24.75 17.7 63.9 27 -1.5 29.3
17:35 1009 29.8 838 24.75 17.7 63.9 26 -2.1 28.2
17:40 1009 29.8 839 24.78 17.9 64.1 26 -1.7 28.9
17:45 1009 29.8 839 24.78 17.5 63.5 30 -0.2 31.6
17:50 1010 29.83 839 24.78 16.3 61.3 32 -0.2 31.6
17:55 1010 29.83 839 24.78 15.8 60.4 33 -0.2 31.6
18:00 1010 29.83 839 24.78 15.5 60 34 -0.1 31.8
18:05 1010 29.83 839 24.78 15.2 59.4 35 0.1 32.1
18:10 1010 29.83 839 24.78 15.1 59.1 38 0.9 33.6
18:15 1010 29.83 839 24.78 14.6 58.3 42 1.9 35.4
18:20 1010 29.83 840 24.81 14.2 57.5 48 3.4 38.1
18:25 1010 29.83 840 24.81 13.7 56.6 50 3.5 38.3
18:30 1010 29.83 840 24.81 13.3 55.9 48 2.7 36.8
18:35 1011 29.85 840 24.81 13.2 55.7 48 2.6 36.7
18:40 1011 29.85 840 24.81 13.1 55.6 50 2.9 37.2
18:45 1011 29.85 840 24.81 13 55.5 50 2.9 37.3
18:50 1011 29.85 840 24.81 13 55.4 49 2.8 37
18:55 1011 29.85 840 24.81 13 55.3 48 2.4 36.3
19:00 1011 29.85 841 24.83 13 55.4 51 3 37.4
19:05 1012 29.88 841 24.83 12.7 54.8 56 4.2 39.6
19:10 1012 29.88 841 24.83 12.3 54.1 60 4.8 40.6
19:15 1012 29.88 841 24.83 11.9 53.4 62 4.8 40.7
19:20 1012 29.88 841 24.83 11.7 53.1 59 4.1 39.3
19:25 1012 29.88 841 24.83 11.8 53.2 61 4.4 40
19:30 1012 29.88 841 24.83 11.9 53.4 58 4 39.2
19:35 1012 29.88 842 24.86 11.9 53.4 60 4.4 39.9
19:40 1012 29.88 842 24.86 11.6 52.8 64 5 41
19:45 1013 29.91 842 24.86 11 51.8 67 5.1 41.1
19:50 1013 29.91 842 24.86 10.6 51.1 70 5.4 41.8
19:55 1013 29.91 842 24.86 10.3 50.6 72 5.4 41.8
20:00 1013 29.91 842 24.86 10.1 50.3 72 5.4 41.8
20:05 1013 29.91 842 24.86 10.1 50.1 73 5.5 41.9
20:10 1013 29.91 843 24.89 10 49.9 75 5.8 42.4
20:15 1013 29.91 843 24.89 9.8 49.7 76 5.9 42.6
20:20 1014 29.94 843 24.89 9.7 49.4 77 5.9 42.7
20:25 1014 29.94 843 24.89 9.5 49.2 79 6 42.8
20:30 1014 29.94 843 24.89 9.3 48.7 80 6 42.9
20:35 1014 29.94 843 24.89 8.9 48 81 5.8 42.5
20:40 1014 29.94 843 24.89 8.4 47 84 5.8 42.4
20:45 1014 29.94 843 24.89 8.2 46.7 86 5.9 42.6
20:50 1014 29.94 843 24.89 8.1 46.5 86 5.9 42.6
20:55 1014 29.94 843 24.89 8.1 46.7 86 5.9 42.7
21:00 1014 29.94 843 24.89 8.1 46.6 86 5.9 42.6
21:05 1014 29.94 843 24.89 7.9 46.2 86 5.8 42.4
21:10 1014 29.94 843 24.89 7.8 46.1 87 5.9 42.5
21:15 1013 29.91 843 24.89 7.8 46.1 87 5.8 42.5
21:20 1013 29.91 842 24.86 7.8 46.1 85 5.5 41.9
21:25 1013 29.91 842 24.86 7.8 46 85 5.5 41.9
21:30 1013 29.91 842 24.86 7.7 45.9 84 5.2 41.4
21:35 1012 29.88 842 24.86 7.6 45.7 84 5.2 41.3
21:40 1012 29.88 841 24.83 7.5 45.4 86 5.4 41.6
21:45 1012 29.88 841 24.83 7.3 45.2 87 5.4 41.7
21:50 1012 29.88 842 24.86 7.3 45.1 87 5.3 41.6
21:55 1012 29.88 842 24.86 7.2 44.9 87 5.1 41.2
22:00 1012 29.88 842 24.86 7.3 45.1 83 4.5 40.2
22:05 1013 29.91 842 24.86 7.5 45.5 81 4.4 40
22:10 1013 29.91 842 24.86 7.6 45.7 81 4.5 40.1
22:15 1013 29.91 842 24.86 7.8 46.1 74 3.6 38.4
22:20 1013 29.91 842 24.86 7.9 46.3 75 3.8 38.8
22:25 1013 29.91 842 24.86 8 46.3 74 3.6 38.6
22:30 1013 29.91 842 24.86 7.9 46.3 79 4.6 40.2
22:35 1013 29.91 842 24.86 7.8 46 81 4.7 40.4
22:40 1013 29.91 842 24.86 7.6 45.7 76 3.6 38.5
22:45 1013 29.91 842 24.86 7.8 46 75 3.6 38.5
22:50 1013 29.91 842 24.86 7.5 45.5 78 4 39.1
22:55 1013 29.91 842 24.86 7.3 45.2 79 4 39.1
23:00 1013 29.91 842 24.86 7.2 45 79 3.9 39
23:05 1013 29.91 842 24.86 7.1 44.8 80 3.8 38.9
23:10 1013 29.91 842 24.86 7.1 44.7 79 3.6 38.5
23:15 1013 29.91 842 24.86 7.2 44.9 78 3.6 38.6
23:20 1013 29.91 842 24.86 7.2 45 81 4.1 39.4
23:25 1013 29.91 842 24.86 7 44.6 82 4.2 39.5
23:30 1013 29.91 842 24.86 6.8 44.2 82 4 39.2
23:35 1013 29.91 842 24.86 6.8 44.2 82 4 39.2
23:40 1013 29.91 842 24.86 6.8 44.2 83 4.1 39.4
23:45 1012 29.88 842 24.86 6.5 43.8 85 4.3 39.7
23:50 1013 29.91 842 24.86 6.4 43.5 86 4.2 39.6
23:55 1013 29.91 842 24.86 6.3 43.3 87 4.2 39.6
24:00 1013 29.91 842 24.86 6.2 43.1 87 4.2 39.5